createdAt,value
2018-09-17T00:00:15.284Z,30.77
2018-09-17T00:01:15.259Z,29.06
2018-09-17T00:02:15.211Z,22.42
2018-09-17T00:03:15.177Z,18.53
2018-09-17T00:04:15.123Z,19.10
2018-09-17T00:05:15.122Z,20.72
2018-09-17T00:06:15.042Z,21.28
2018-09-17T00:07:15.009Z,22.42
2018-09-17T00:08:14.968Z,23.36
2018-09-17T00:09:14.921Z,24.12
2018-09-17T00:10:14.882Z,27.07
2018-09-17T00:11:14.831Z,28.02
2018-09-17T00:12:14.800Z,30.77
2018-09-17T00:13:14.771Z,25.26
2018-09-17T00:14:14.729Z,19.28
2018-09-17T00:15:14.685Z,18.71
2018-09-17T00:16:14.649Z,18.04
2018-09-17T00:17:14.637Z,18.43
2018-09-17T00:18:14.577Z,18.90
2018-09-17T00:19:14.540Z,20.32
2018-09-17T00:20:14.489Z,21.47
2018-09-17T00:21:14.438Z,23.74
2018-09-17T00:22:14.406Z,23.93
2018-09-17T00:23:14.350Z,25.17
2018-09-17T00:24:14.324Z,25.74
2018-09-17T00:25:14.276Z,28.02
2018-09-17T00:26:14.258Z,28.30
2018-09-17T00:27:14.200Z,22.32
2018-09-17T00:28:14.179Z,18.04
2018-09-17T00:29:14.133Z,16.91
2018-09-17T00:30:14.113Z,16.91
2018-09-17T00:31:14.045Z,16.81
2018-09-17T00:32:13.992Z,15.48
2018-09-17T00:33:13.979Z,15.10
2018-09-17T00:34:13.952Z,16.05
2018-09-17T00:35:13.896Z,18.14
2018-09-17T00:36:13.842Z,18.52
2018-09-17T00:37:13.794Z,19.09
2018-09-17T00:38:13.845Z,19.85
2018-09-17T00:39:13.709Z,20.14
2018-09-17T00:40:13.695Z,20.14
2018-09-17T00:41:13.632Z,21.08
2018-09-17T00:42:13.599Z,19.56
2018-09-17T00:43:13.565Z,18.43
2018-09-17T00:44:13.516Z,18.90
2018-09-17T00:45:13.469Z,18.62
2018-09-17T00:46:13.427Z,19.95
2018-09-17T00:47:13.383Z,19.66
2018-09-17T00:48:13.350Z,20.51
2018-09-17T00:49:13.305Z,19.18
2018-09-17T00:50:13.271Z,15.48
2018-09-17T00:51:13.213Z,13.20
2018-09-17T00:52:13.186Z,13.10
2018-09-17T00:53:13.142Z,13.87
2018-09-17T00:54:13.109Z,14.43
2018-09-17T00:55:13.062Z,15.58
2018-09-17T00:56:13.020Z,17.19
2018-09-17T00:57:13.005Z,17.76
2018-09-17T00:58:12.948Z,19.37
2018-09-17T00:59:12.903Z,19.28
2018-09-17T01:00:12.857Z,18.99
2018-09-17T01:01:12.925Z,17.10
2018-09-17T01:02:12.775Z,17.85
2018-09-17T01:03:12.745Z,18.24
2018-09-17T01:04:12.706Z,15.29
2018-09-17T01:05:12.759Z,13.20
2018-09-17T01:06:12.617Z,13.01
2018-09-17T01:07:12.584Z,14.15
2018-09-17T01:08:12.541Z,15.58
2018-09-17T01:09:12.501Z,18.14
2018-09-17T01:10:12.473Z,20.32
2018-09-17T01:11:12.408Z,20.42
2018-09-17T01:12:12.372Z,20.70
2018-09-17T01:13:12.330Z,20.32
2018-09-17T01:14:12.304Z,18.99
2018-09-17T01:15:12.261Z,22.03
2018-09-17T01:16:12.218Z,22.32
2018-09-17T01:17:12.172Z,20.04
2018-09-17T01:18:12.156Z,19.28
2018-09-17T01:19:12.090Z,18.43
2018-09-17T01:20:12.061Z,17.38
2018-09-17T01:21:12.031Z,19.37
2018-09-17T01:22:11.970Z,21.08
2018-09-17T01:23:11.930Z,22.13
2018-09-17T01:24:11.888Z,22.32
2018-09-17T01:25:11.849Z,22.32
2018-09-17T01:26:11.806Z,24.30
2018-09-17T01:27:11.765Z,23.07
2018-09-17T01:28:11.739Z,26.20
2018-09-17T01:29:11.686Z,27.44
2018-09-17T01:30:11.634Z,25.25
2018-09-17T01:31:11.629Z,21.36
2018-09-17T01:32:11.584Z,19.37
2018-09-17T01:33:11.524Z,17.38
2018-09-17T01:34:11.474Z,15.39
2018-09-17T01:35:11.445Z,15.29
2018-09-17T01:36:11.398Z,14.53
2018-09-17T01:37:11.363Z,13.96
2018-09-17T01:38:11.335Z,13.87
2018-09-17T01:39:11.310Z,13.58
2018-09-17T01:40:11.250Z,12.82
2018-09-17T01:41:11.225Z,13.29
2018-09-17T01:42:11.185Z,13.20
2018-09-17T01:43:11.173Z,13.58
2018-09-17T01:44:11.090Z,13.01
2018-09-17T01:45:11.042Z,12.63
2018-09-17T01:46:11.023Z,13.10
2018-09-17T01:47:10.969Z,11.87
2018-09-17T01:48:10.909Z,13.20
2018-09-17T01:49:10.887Z,15.58
2018-09-17T01:50:10.832Z,17.19
2018-09-17T01:51:10.783Z,18.43
2018-09-17T01:52:10.757Z,19.95
2018-09-17T01:53:10.738Z,17.57
2018-09-17T01:54:10.681Z,17.95
2018-09-17T01:55:11.524Z,19.56
2018-09-17T01:56:10.587Z,19.66
2018-09-17T01:57:10.564Z,17.19
2018-09-17T01:58:10.525Z,16.91
2018-09-17T01:59:10.485Z,18.71
2018-09-17T02:00:11.046Z,18.71
2018-09-17T02:01:10.436Z,17.29
2018-09-17T02:02:10.333Z,15.20
2018-09-17T02:03:10.301Z,13.29
2018-09-17T02:04:10.247Z,13.29
2018-09-17T02:05:10.219Z,15.20
2018-09-17T02:06:10.183Z,17.00
2018-09-17T02:07:10.190Z,18.70
2018-09-17T02:08:10.155Z,18.04
2018-09-17T02:09:10.114Z,15.20
2018-09-17T02:10:10.020Z,13.39
2018-09-17T02:11:09.975Z,13.01
2018-09-17T02:12:09.925Z,14.06
2018-09-17T02:13:09.894Z,15.20
2018-09-17T02:14:09.848Z,16.05
2018-09-17T02:15:09.806Z,16.05
2018-09-17T02:16:09.761Z,16.05
2018-09-17T02:17:09.730Z,15.86
2018-09-17T02:18:09.692Z,14.43
2018-09-17T02:19:09.666Z,14.53
2018-09-17T02:20:09.615Z,15.20
2018-09-17T02:21:09.572Z,15.10
2018-09-17T02:22:09.521Z,15.77
2018-09-17T02:23:09.495Z,15.58
2018-09-17T02:24:09.458Z,17.00
2018-09-17T02:25:09.475Z,17.85
2018-09-17T02:26:09.389Z,18.62
2018-09-17T02:27:09.344Z,19.28
2018-09-17T02:28:09.274Z,20.51
2018-09-17T02:29:09.302Z,21.64
2018-09-17T02:30:09.191Z,20.98
2018-09-17T02:31:09.172Z,19.74
2018-09-17T02:32:09.119Z,19.27
2018-09-17T02:33:09.090Z,20.22
2018-09-17T02:34:09.242Z,21.74
2018-09-17T02:35:08.986Z,21.83
2018-09-17T02:36:08.980Z,20.60
2018-09-17T02:37:08.924Z,19.37
2018-09-17T02:38:08.874Z,16.81
2018-09-17T02:39:08.833Z,15.85
2018-09-17T02:40:08.798Z,17.00
2018-09-17T02:41:08.745Z,17.56
2018-09-17T02:42:08.708Z,16.99
2018-09-17T02:43:08.666Z,17.47
2018-09-17T02:44:08.657Z,18.70
2018-09-17T02:45:08.582Z,19.56
2018-09-17T02:46:08.552Z,21.36
2018-09-17T02:47:08.501Z,21.83
2018-09-17T02:48:08.518Z,20.41
2018-09-17T02:49:08.439Z,21.17
2018-09-17T02:50:08.401Z,21.26
2018-09-17T02:51:08.336Z,20.89
2018-09-17T02:52:08.290Z,20.31
2018-09-17T02:53:08.263Z,18.79
2018-09-17T02:54:08.226Z,17.56
2018-09-17T02:55:08.184Z,15.85
2018-09-17T02:56:08.133Z,15.76
2018-09-17T02:57:08.115Z,16.14
2018-09-17T02:58:08.069Z,16.80
2018-09-17T02:59:08.059Z,18.04
2018-09-17T03:00:08.019Z,18.98
2018-09-17T03:01:07.925Z,19.37
2018-09-17T03:02:07.896Z,19.46
2018-09-17T03:03:07.859Z,16.52
2018-09-17T03:04:12.589Z,13.67
2018-09-17T03:05:07.774Z,12.62
2018-09-17T03:06:07.734Z,12.24
2018-09-17T03:07:07.755Z,11.39
2018-09-17T03:08:07.685Z,11.21
2018-09-17T03:09:07.605Z,10.64
2018-09-17T03:10:07.569Z,10.83
2018-09-17T03:11:07.528Z,11.96
2018-09-17T03:12:07.479Z,13.20
2018-09-17T03:13:07.461Z,14.05
2018-09-17T03:14:07.431Z,15.28
2018-09-17T03:15:07.414Z,17.08
2018-09-17T03:16:07.322Z,18.04
2018-09-17T03:17:07.293Z,18.79
2018-09-17T03:18:07.258Z,18.41
2018-09-17T03:19:07.201Z,17.56
2018-09-17T03:20:07.175Z,16.89
2018-09-17T03:21:07.126Z,15.56
2018-09-17T03:22:07.085Z,14.52
2018-09-17T03:23:07.037Z,13.10
2018-09-17T03:24:07.006Z,11.49
2018-09-17T03:25:06.967Z,11.21
2018-09-17T03:26:06.918Z,11.11
2018-09-17T03:27:06.885Z,12.25
2018-09-17T03:28:06.830Z,13.95
2018-09-17T03:29:06.791Z,15.47
2018-09-17T03:30:06.737Z,15.37
2018-09-17T03:31:06.707Z,15.56
2018-09-17T03:32:06.675Z,15.66
2018-09-17T03:33:06.629Z,15.09
2018-09-17T03:34:06.596Z,15.56
2018-09-17T03:35:06.626Z,18.04
2018-09-17T03:36:06.510Z,19.46
2018-09-17T03:37:06.466Z,16.61
2018-09-17T03:38:06.425Z,15.37
2018-09-17T03:39:06.398Z,14.33
2018-09-17T03:40:06.350Z,13.20
2018-09-17T03:41:06.326Z,12.72
2018-09-17T03:42:06.301Z,13.00
2018-09-17T03:43:06.222Z,13.39
2018-09-17T03:44:06.186Z,14.33
2018-09-17T03:45:06.133Z,14.24
2018-09-17T03:46:06.146Z,15.56
2018-09-17T03:47:06.064Z,15.47
2018-09-17T03:48:06.034Z,15.85
2018-09-17T03:49:05.984Z,14.43
2018-09-17T03:50:05.927Z,14.14
2018-09-17T03:51:05.895Z,13.85
2018-09-17T03:52:05.843Z,13.76
2018-09-17T03:53:05.810Z,13.85
2018-09-17T03:54:05.775Z,13.67
2018-09-17T03:55:05.728Z,13.29
2018-09-17T03:56:05.713Z,13.10
2018-09-17T03:57:05.648Z,14.05
2018-09-17T03:58:05.603Z,15.09
2018-09-17T03:59:05.573Z,14.52
2018-09-17T04:00:05.533Z,13.95
2018-09-17T04:01:05.501Z,13.29
2018-09-17T04:02:05.506Z,13.00
2018-09-17T04:03:05.402Z,13.20
2018-09-17T04:04:05.380Z,13.85
2018-09-17T04:05:05.318Z,14.43
2018-09-17T04:06:05.280Z,14.90
2018-09-17T04:07:05.224Z,14.43
2018-09-17T04:08:05.197Z,13.95
2018-09-17T04:09:05.211Z,13.95
2018-09-17T04:10:05.137Z,15.56
2018-09-17T04:11:05.107Z,16.04
2018-09-17T04:12:05.027Z,15.19
2018-09-17T04:13:05.053Z,13.00
2018-09-17T04:14:04.946Z,12.91
2018-09-17T04:15:04.897Z,12.72
2018-09-17T04:16:04.881Z,12.43
2018-09-17T04:17:04.825Z,12.72
2018-09-17T04:18:04.788Z,12.24
2018-09-17T04:19:04.741Z,13.20
2018-09-17T04:20:04.698Z,14.05
2018-09-17T04:21:04.687Z,15.18
2018-09-17T04:22:04.616Z,15.94
2018-09-17T04:23:04.591Z,16.51
2018-09-17T04:24:04.577Z,18.98
2018-09-17T04:25:04.520Z,18.79
2018-09-17T04:26:04.455Z,18.22
2018-09-17T04:27:04.410Z,15.37
2018-09-17T04:28:04.372Z,13.38
2018-09-17T04:29:04.324Z,12.43
2018-09-17T04:30:04.286Z,10.53
2018-09-17T04:31:04.252Z,10.25
2018-09-17T04:32:04.196Z,10.25
2018-09-17T04:33:04.203Z,10.25
2018-09-17T04:34:04.141Z,10.06
2018-09-17T04:35:04.081Z,11.10
2018-09-17T04:36:04.964Z,12.34
2018-09-17T04:37:04.013Z,12.05
2018-09-17T04:38:03.987Z,12.53
2018-09-17T04:39:03.909Z,12.91
2018-09-17T04:40:03.882Z,13.67
2018-09-17T04:41:03.855Z,14.42
2018-09-17T04:42:03.802Z,15.28
2018-09-17T04:43:03.781Z,16.70
2018-09-17T04:44:03.719Z,18.12
2018-09-17T04:45:03.695Z,17.46
2018-09-17T04:46:03.664Z,16.32
2018-09-17T04:47:03.597Z,18.31
2018-09-17T04:48:03.590Z,18.02
2018-09-17T04:49:03.529Z,18.02
2018-09-17T04:50:03.465Z,14.42
2018-09-17T04:51:03.432Z,12.15
2018-09-17T04:52:03.374Z,10.91
2018-09-17T04:53:03.369Z,10.44
2018-09-17T04:54:03.310Z,10.82
2018-09-17T04:55:03.260Z,10.91
2018-09-17T04:56:03.210Z,11.30
2018-09-17T04:57:03.178Z,11.20
2018-09-17T04:58:03.181Z,12.53
2018-09-17T04:59:03.121Z,13.10
2018-09-17T05:00:03.058Z,10.63
2018-09-17T05:01:03.020Z,10.44
2018-09-17T05:02:03.103Z,11.58
2018-09-17T05:03:02.942Z,12.05
2018-09-17T05:04:02.893Z,12.34
2018-09-17T05:05:02.850Z,12.91
2018-09-17T05:06:02.872Z,13.29
2018-09-17T05:07:02.768Z,12.81
2018-09-17T05:08:02.774Z,13.29
2018-09-17T05:09:02.692Z,14.05
2018-09-17T05:10:02.649Z,15.37
2018-09-17T05:11:02.618Z,15.37
2018-09-17T05:12:02.595Z,15.66
2018-09-17T05:13:02.628Z,15.84
2018-09-17T05:14:02.485Z,15.00
2018-09-17T05:15:02.461Z,15.09
2018-09-17T05:16:02.406Z,15.37
2018-09-17T05:17:02.352Z,16.61
2018-09-17T05:18:02.320Z,16.41
2018-09-17T05:19:02.290Z,15.19
2018-09-17T05:20:02.289Z,13.95
2018-09-17T05:21:02.245Z,13.10
2018-09-17T05:22:02.162Z,14.14
2018-09-17T05:23:02.111Z,14.52
2018-09-17T05:24:02.055Z,14.33
2018-09-17T05:25:02.024Z,15.19
2018-09-17T05:26:01.986Z,15.28
2018-09-17T05:27:01.943Z,16.52
2018-09-17T05:28:01.908Z,17.27
2018-09-17T05:29:01.864Z,17.94
2018-09-17T05:30:01.830Z,16.61
2018-09-17T05:31:01.793Z,15.37
2018-09-17T05:32:01.759Z,14.62
2018-09-17T05:33:01.702Z,14.62
2018-09-17T05:34:01.647Z,15.37
2018-09-17T05:35:01.659Z,15.76
2018-09-17T05:36:01.572Z,15.66
2018-09-17T05:37:01.535Z,15.47
2018-09-17T05:38:01.488Z,15.85
2018-09-17T05:39:01.446Z,15.76
2018-09-17T05:40:01.414Z,15.77
2018-09-17T05:41:01.365Z,16.14
2018-09-17T05:42:01.406Z,16.43
2018-09-17T05:43:01.294Z,16.33
2018-09-17T05:44:01.250Z,16.33
2018-09-17T05:45:01.217Z,15.39
2018-09-17T05:46:01.181Z,13.96
2018-09-17T05:47:01.127Z,13.68
2018-09-17T05:48:01.110Z,13.48
2018-09-17T05:49:01.111Z,13.10
2018-09-17T05:50:01.012Z,13.68
2018-09-17T05:51:00.995Z,13.77
2018-09-17T05:52:00.915Z,14.15
2018-09-17T05:53:00.901Z,14.06
2018-09-17T05:54:00.845Z,14.15
2018-09-17T05:55:00.824Z,14.54
2018-09-17T05:56:00.760Z,14.35
2018-09-17T05:57:00.718Z,14.92
2018-09-17T05:58:00.674Z,14.82
2018-09-17T05:59:00.642Z,14.44
2018-09-17T06:00:00.605Z,15.01
2018-09-17T06:01:00.570Z,15.68
2018-09-17T06:02:00.520Z,15.58
2018-09-17T06:03:00.493Z,16.44
2018-09-17T06:04:00.459Z,15.97
2018-09-17T06:05:00.451Z,15.78
2018-09-17T06:06:00.476Z,15.78
2018-09-17T06:07:00.370Z,15.40
2018-09-17T06:08:00.285Z,15.50
2018-09-17T06:09:00.247Z,16.54
2018-09-17T06:10:00.203Z,16.54
2018-09-17T06:11:00.180Z,17.11
2018-09-17T06:12:00.127Z,17.22
2018-09-17T06:13:00.088Z,17.12
2018-09-17T06:14:00.038Z,17.41
2018-09-17T06:15:00.025Z,18.45
2018-09-17T06:15:59.950Z,18.26
2018-09-17T06:16:59.936Z,19.50
2018-09-17T06:17:59.870Z,20.17
2018-09-17T06:18:59.848Z,20.83
2018-09-17T06:19:59.800Z,22.45
2018-09-17T06:20:59.774Z,25.02
2018-09-17T06:21:59.748Z,26.92
2018-09-17T06:22:59.676Z,29.01
2018-09-17T06:23:59.623Z,28.72
2018-09-17T06:24:59.598Z,28.25
2018-09-17T06:25:59.562Z,28.63
2018-09-17T06:26:59.504Z,28.72
2018-09-17T06:27:59.579Z,29.11
2018-09-17T06:28:59.427Z,28.36
2018-09-17T06:29:59.421Z,26.07
2018-09-17T06:30:59.357Z,25.79
2018-09-17T06:31:59.329Z,29.14
2018-09-17T06:32:59.326Z,27.14
2018-09-17T06:33:59.242Z,29.61
2018-09-17T06:34:59.208Z,29.23
2018-09-17T06:35:59.177Z,33.90
2018-09-17T06:36:59.160Z,32.56
2018-09-17T06:37:59.097Z,35.99
2018-09-17T06:38:59.070Z,40.77
2018-09-17T06:39:59.014Z,40.87
2018-09-17T06:40:58.980Z,35.91
2018-09-17T06:41:58.953Z,40.01
2018-09-17T06:42:58.917Z,35.36
2018-09-17T06:43:58.861Z,46.63
2018-09-17T06:44:58.879Z,76.52
2018-09-17T06:45:58.775Z,70.07
2018-09-17T06:46:58.743Z,79.79
2018-09-17T06:47:58.687Z,98.57
2018-09-17T06:48:58.695Z,99.99
2018-09-17T06:49:58.659Z,99.99
2018-09-17T06:50:58.645Z,99.99
2018-09-17T06:51:58.571Z,99.99
2018-09-17T06:52:58.544Z,99.99
2018-09-17T06:53:58.501Z,99.99
2018-09-17T06:54:58.488Z,99.99
2018-09-17T06:55:58.418Z,99.99
2018-09-17T06:56:58.398Z,99.99
2018-09-17T06:57:58.382Z,99.99
2018-09-17T06:58:58.398Z,99.99
2018-09-17T06:59:58.265Z,99.99
2018-09-17T07:00:58.232Z,99.99
2018-09-17T07:01:58.203Z,99.99
2018-09-17T07:02:58.170Z,99.99
2018-09-17T07:03:58.152Z,99.99
2018-09-17T07:04:58.112Z,99.99
2018-09-17T07:05:58.067Z,99.99
2018-09-17T07:06:58.044Z,99.99
2018-09-17T07:07:58.003Z,99.99
2018-09-17T07:08:57.981Z,99.99
2018-09-17T07:09:57.977Z,99.40
2018-09-17T07:10:57.922Z,99.99
2018-09-17T07:11:57.916Z,99.99
2018-09-17T07:12:57.869Z,99.99
2018-09-17T07:13:57.829Z,98.14
2018-09-17T07:14:57.821Z,99.98
2018-09-17T07:15:57.798Z,99.99
2018-09-17T07:16:57.784Z,99.99
2018-09-17T07:17:57.740Z,99.99
2018-09-17T07:18:57.697Z,99.99
2018-09-17T07:19:57.705Z,99.99
2018-09-17T07:20:57.647Z,99.99
2018-09-17T07:21:57.614Z,99.99
2018-09-17T07:22:57.588Z,99.99
2018-09-17T07:23:57.556Z,96.94
2018-09-17T07:24:57.585Z,99.35
2018-09-17T07:25:57.513Z,99.93
2018-09-17T07:26:57.486Z,98.72
2018-09-17T07:27:57.443Z,93.33
2018-09-17T07:28:57.415Z,89.53
2018-09-17T07:29:57.405Z,90.30
2018-09-17T07:30:57.366Z,95.11
2018-09-17T07:31:57.350Z,90.00
2018-09-17T07:32:57.331Z,94.44
2018-09-17T07:33:57.281Z,90.10
2018-09-17T07:34:57.270Z,92.41
2018-09-17T07:35:57.240Z,91.26
2018-09-17T07:36:57.200Z,88.56
2018-09-17T07:37:57.180Z,92.03
2018-09-17T07:38:57.157Z,89.29
2018-09-17T07:39:57.115Z,92.08
2018-09-17T07:40:57.117Z,91.99
2018-09-17T07:41:57.079Z,93.09
2018-09-17T07:42:57.039Z,99.99
2018-09-17T07:43:57.027Z,98.72
2018-09-17T07:44:56.981Z,98.14
2018-09-17T07:45:56.952Z,99.99
2018-09-17T07:46:56.931Z,99.99
2018-09-17T07:47:56.947Z,99.99
2018-09-17T07:48:56.882Z,99.99
2018-09-17T07:49:56.837Z,99.99
2018-09-17T07:50:56.804Z,99.99
2018-09-17T07:51:56.786Z,99.99
2018-09-17T07:52:56.787Z,99.99
2018-09-17T07:53:56.773Z,99.99
2018-09-17T07:54:56.685Z,99.99
2018-09-17T07:55:56.674Z,99.99
2018-09-17T07:56:56.631Z,99.99
2018-09-17T07:57:56.629Z,99.99
2018-09-17T07:58:56.594Z,99.99
2018-09-17T07:59:56.549Z,99.99
2018-09-17T08:00:56.535Z,99.99
2018-09-17T08:01:56.469Z,99.99
2018-09-17T08:02:56.449Z,99.99
2018-09-17T08:03:56.433Z,99.99
2018-09-17T08:04:56.399Z,99.99
2018-09-17T08:05:56.360Z,99.99
2018-09-17T08:06:56.324Z,99.99
2018-09-17T08:07:56.315Z,99.99
2018-09-17T08:08:56.276Z,99.99
2018-09-17T08:09:56.229Z,99.99
2018-09-17T08:10:56.195Z,99.99
2018-09-17T08:11:56.191Z,99.99
2018-09-17T08:12:56.148Z,99.99
2018-09-17T08:13:56.118Z,99.99
2018-09-17T08:14:56.095Z,99.99
2018-09-17T08:15:56.065Z,99.99
2018-09-17T08:16:56.032Z,99.99
2018-09-17T08:17:56.155Z,99.99
2018-09-17T08:18:55.954Z,99.99
2018-09-17T08:19:55.933Z,99.99
2018-09-17T08:20:55.926Z,99.99
2018-09-17T08:21:55.887Z,99.99
2018-09-17T08:22:55.827Z,98.87
2018-09-17T08:23:55.812Z,99.99
2018-09-17T08:24:55.769Z,99.93
2018-09-17T08:25:55.745Z,89.23
2018-09-17T08:26:55.695Z,86.82
2018-09-17T08:27:55.680Z,92.02
2018-09-17T08:28:55.642Z,94.58
2018-09-17T08:29:55.627Z,92.26
2018-09-17T08:30:55.600Z,81.93
2018-09-17T08:31:55.551Z,83.23
2018-09-17T08:32:55.533Z,86.80
2018-09-17T08:33:55.537Z,80.14
2018-09-17T08:34:55.460Z,80.38
2018-09-17T08:35:55.429Z,77.00
2018-09-17T08:36:55.408Z,78.15
2018-09-17T08:37:55.395Z,76.80
2018-09-17T08:38:55.345Z,77.09
2018-09-17T08:39:55.324Z,75.58
2018-09-17T08:40:55.269Z,75.23
2018-09-17T08:41:55.272Z,74.07
2018-09-17T08:42:55.223Z,75.27
2018-09-17T08:43:55.210Z,74.01
2018-09-17T08:44:55.185Z,71.72
2018-09-17T08:45:55.131Z,70.50
2018-09-17T08:46:55.100Z,70.79
2018-09-17T08:47:55.065Z,68.66
2018-09-17T08:48:55.048Z,67.72
2018-09-17T08:49:55.065Z,67.53
2018-09-17T08:50:55.000Z,66.30
2018-09-17T08:51:54.960Z,65.20
2018-09-17T08:52:55.015Z,65.63
2018-09-17T08:53:54.907Z,61.90
2018-09-17T08:54:54.880Z,61.32
2018-09-17T08:55:54.850Z,61.93
2018-09-17T08:56:54.835Z,61.25
2018-09-17T08:57:54.792Z,59.33
2018-09-17T08:58:54.774Z,60.02
2018-09-17T08:59:54.744Z,61.08
2018-09-17T09:00:54.717Z,59.33
2018-09-17T09:01:54.718Z,59.23
2018-09-17T09:02:54.662Z,60.08
2018-09-17T09:03:54.675Z,59.11
2018-09-17T09:04:54.663Z,59.11
2018-09-17T09:05:54.590Z,60.05
2018-09-17T09:06:54.566Z,60.05
2018-09-17T09:07:54.551Z,61.12
2018-09-17T09:08:54.520Z,61.00
2018-09-17T09:09:54.499Z,61.90
2018-09-17T09:10:54.477Z,61.83
2018-09-17T09:11:54.443Z,60.18
2018-09-17T09:12:54.422Z,60.08
2018-09-17T09:13:54.507Z,59.59
2018-09-17T09:14:54.373Z,59.99
2018-09-17T09:15:54.357Z,58.85
2018-09-17T09:16:54.348Z,60.11
2018-09-17T09:17:54.323Z,59.56
2018-09-17T09:18:54.309Z,58.13
2018-09-17T09:19:54.304Z,56.30
2018-09-17T09:20:54.229Z,56.04
2018-09-17T09:21:54.209Z,57.11
2018-09-17T09:22:54.255Z,56.46
2018-09-17T09:23:54.176Z,56.50
2018-09-17T09:24:54.159Z,57.06
2018-09-17T09:25:54.133Z,57.12
2018-09-17T09:26:54.111Z,56.93
2018-09-17T09:27:54.077Z,57.97
2018-09-17T09:28:54.069Z,59.39
2018-09-17T09:29:54.022Z,59.10
2018-09-17T09:30:54.053Z,57.42
2018-09-17T09:31:53.997Z,58.87
2018-09-17T09:32:53.964Z,58.42
2018-09-17T09:33:53.969Z,58.03
2018-09-17T09:34:53.908Z,56.30
2018-09-17T09:35:53.920Z,55.85
2018-09-17T09:36:53.859Z,54.31
2018-09-17T09:37:53.869Z,54.93
2018-09-17T09:38:53.840Z,57.17
2018-09-17T09:39:53.827Z,56.07
2018-09-17T09:40:53.795Z,55.48
2018-09-17T09:41:53.767Z,55.68
2018-09-17T09:42:53.757Z,55.61
2018-09-17T09:43:53.710Z,55.41
2018-09-17T09:44:53.726Z,54.05
2018-09-17T09:45:53.672Z,54.11
2018-09-17T09:46:53.671Z,54.68
2018-09-17T09:47:53.656Z,54.77
2018-09-17T09:48:53.633Z,54.60
2018-09-17T09:49:53.609Z,57.26
2018-09-17T09:50:53.558Z,53.85
2018-09-17T09:51:53.588Z,53.52
2018-09-17T09:52:53.546Z,54.05
2018-09-17T09:53:53.497Z,51.29
2018-09-17T09:54:53.479Z,51.29
2018-09-17T09:55:53.470Z,52.47
2018-09-17T09:56:53.441Z,51.78
2018-09-17T09:57:53.417Z,49.85
2018-09-17T09:58:53.409Z,51.81
2018-09-17T09:59:53.393Z,49.75
2018-09-17T10:00:53.369Z,49.97
2018-09-17T10:01:53.347Z,50.15
2018-09-17T10:02:53.328Z,50.66
2018-09-17T10:03:53.299Z,49.82
2018-09-17T10:04:53.298Z,51.29
2018-09-17T10:05:53.293Z,51.32
2018-09-17T10:06:53.261Z,48.82
2018-09-17T10:07:53.223Z,46.65
2018-09-17T10:08:53.239Z,47.02
2018-09-17T10:09:53.199Z,47.70
2018-09-17T10:10:53.196Z,48.55
2018-09-17T10:11:53.167Z,48.87
2018-09-17T10:12:53.163Z,48.99
2018-09-17T10:13:53.116Z,47.53
2018-09-17T10:14:53.184Z,47.41
2018-09-17T10:15:53.090Z,47.89
2018-09-17T10:16:53.109Z,48.58
2018-09-17T10:17:53.065Z,49.80
2018-09-17T10:18:53.027Z,48.39
2018-09-17T10:19:53.021Z,51.21
2018-09-17T10:20:52.983Z,49.98
2018-09-17T10:21:52.971Z,49.39
2018-09-17T10:22:52.934Z,51.04
2018-09-17T10:23:52.934Z,49.90
2018-09-17T10:24:52.942Z,49.63
2018-09-17T10:25:52.895Z,48.65
2018-09-17T10:26:52.883Z,47.99
2018-09-17T10:27:52.857Z,46.62
2018-09-17T10:28:52.829Z,46.50
2018-09-17T10:29:52.907Z,47.85
2018-09-17T10:30:52.813Z,48.24
2018-09-17T10:31:52.809Z,49.92
2018-09-17T10:32:52.760Z,47.89
2018-09-17T10:33:52.799Z,48.28
2018-09-17T10:34:52.752Z,48.16
2018-09-17T10:35:52.707Z,49.73
2018-09-17T10:36:52.703Z,48.75
2018-09-17T10:37:52.673Z,49.04
2018-09-17T10:38:52.669Z,48.16
2018-09-17T10:39:52.613Z,47.38
2018-09-17T10:40:52.721Z,46.41
2018-09-17T10:41:52.609Z,46.97
2018-09-17T10:42:52.620Z,47.14
2018-09-17T10:43:52.564Z,49.49
2018-09-17T10:44:52.604Z,49.02
2018-09-17T10:45:52.543Z,48.26
2018-09-17T10:46:52.570Z,48.61
2018-09-17T10:47:52.500Z,48.51
2018-09-17T10:48:52.446Z,50.65
2018-09-17T10:49:52.437Z,50.68
2018-09-17T10:50:52.435Z,51.27
2018-09-17T10:51:52.469Z,48.34
2018-09-17T10:52:52.369Z,48.93
2018-09-17T10:53:52.344Z,49.54
2018-09-17T10:54:52.363Z,49.56
2018-09-17T10:55:52.306Z,49.68
2018-09-17T10:56:52.293Z,49.61
2018-09-17T10:57:52.273Z,51.39
2018-09-17T10:58:52.263Z,48.63
2018-09-17T10:59:52.240Z,48.49
2018-09-17T11:00:52.206Z,51.43
2018-09-17T11:01:52.197Z,49.10
2018-09-17T11:02:52.185Z,48.61
2018-09-17T11:03:52.158Z,49.71
2018-09-17T11:04:52.140Z,47.87
2018-09-17T11:05:52.125Z,47.80
2018-09-17T11:06:52.097Z,47.02
2018-09-17T11:07:52.084Z,47.31
2018-09-17T11:08:52.058Z,46.92
2018-09-17T11:09:52.057Z,50.02
2018-09-17T11:10:52.019Z,50.00
2018-09-17T11:11:52.003Z,49.53
2018-09-17T11:12:51.980Z,47.38
2018-09-17T11:13:51.964Z,47.46
2018-09-17T11:14:51.945Z,46.72
2018-09-17T11:15:51.953Z,45.86
2018-09-17T11:16:51.903Z,46.06
2018-09-17T11:17:51.908Z,45.01
2018-09-17T11:18:51.876Z,46.01
2018-09-17T11:19:51.853Z,45.23
2018-09-17T11:20:51.818Z,45.62
2018-09-17T11:21:51.812Z,45.23
2018-09-17T11:22:51.792Z,43.84
2018-09-17T11:23:51.779Z,45.79
2018-09-17T11:24:51.753Z,44.81
2018-09-17T11:25:51.732Z,45.86
2018-09-17T11:26:51.724Z,46.43
2018-09-17T11:27:51.739Z,45.86
2018-09-17T11:28:51.680Z,47.11
2018-09-17T11:29:51.668Z,45.75
2018-09-17T11:30:51.643Z,46.04
2018-09-17T11:31:51.614Z,47.77
2018-09-17T11:32:51.636Z,46.29
2018-09-17T11:33:51.580Z,48.34
2018-09-17T11:34:51.566Z,50.12
2018-09-17T11:35:51.556Z,48.54
2018-09-17T11:36:51.535Z,47.00
2018-09-17T11:37:51.517Z,48.07
2018-09-17T11:38:51.490Z,47.80
2018-09-17T11:39:51.478Z,47.63
2018-09-17T11:40:51.464Z,47.46
2018-09-17T11:41:51.420Z,46.70
2018-09-17T11:42:51.431Z,46.80
2018-09-17T11:43:51.414Z,46.29
2018-09-17T11:44:51.377Z,47.17
2018-09-17T11:45:51.345Z,47.27
2018-09-17T11:46:51.318Z,47.77
2018-09-17T11:47:51.302Z,47.09
2018-09-17T11:48:51.290Z,46.11
2018-09-17T11:49:51.321Z,46.80
2018-09-17T11:50:51.254Z,46.62
2018-09-17T11:51:51.236Z,47.41
2018-09-17T11:52:51.233Z,47.31
2018-09-17T11:53:51.255Z,47.11
2018-09-17T11:54:51.182Z,46.75
2018-09-17T11:55:51.163Z,45.57
2018-09-17T11:56:51.152Z,45.45
2018-09-17T11:57:51.109Z,47.11
2018-09-17T11:58:51.090Z,46.23
2018-09-17T11:59:51.077Z,45.72
2018-09-17T12:00:51.056Z,48.55
2018-09-17T12:01:51.089Z,47.38
2018-09-17T12:02:51.032Z,46.48
2018-09-17T12:03:51.023Z,45.80
2018-09-17T12:04:50.975Z,45.04
2018-09-17T12:05:50.990Z,46.62
2018-09-17T12:06:50.961Z,45.45
2018-09-17T12:07:50.943Z,43.38
2018-09-17T12:08:50.920Z,44.67
2018-09-17T12:09:50.907Z,45.67
2018-09-17T12:10:50.857Z,43.49
2018-09-17T12:11:50.848Z,45.67
2018-09-17T12:12:50.833Z,46.84
2018-09-17T12:13:50.814Z,45.80
2018-09-17T12:14:50.810Z,47.83
2018-09-17T12:15:50.795Z,49.76
2018-09-17T12:16:50.744Z,48.93
2018-09-17T12:17:50.746Z,49.10
2018-09-17T12:18:50.731Z,51.43
2018-09-17T12:19:50.677Z,51.43
2018-09-17T12:20:50.676Z,51.82
2018-09-17T12:21:50.660Z,52.07
2018-09-17T12:22:50.632Z,50.14
2018-09-17T12:23:50.615Z,48.32
2018-09-17T12:24:50.596Z,48.44
2018-09-17T12:25:50.634Z,46.89
2018-09-17T12:26:50.575Z,46.88
2018-09-17T12:27:50.566Z,49.61
2018-09-17T12:28:50.507Z,49.10
2018-09-17T12:29:50.484Z,47.73
2018-09-17T12:30:50.481Z,47.14
2018-09-17T12:31:50.462Z,47.73
2018-09-17T12:32:50.433Z,46.29
2018-09-17T12:33:50.468Z,45.70
2018-09-17T12:34:50.395Z,46.36
2018-09-17T12:35:50.363Z,47.24
2018-09-17T12:36:50.376Z,47.27
2018-09-17T12:37:50.327Z,45.00
2018-09-17T12:38:50.312Z,46.56
2018-09-17T12:39:50.294Z,46.48
2018-09-17T12:40:50.289Z,46.80
2018-09-17T12:41:50.248Z,45.43
2018-09-17T12:42:50.229Z,44.84
2018-09-17T12:43:50.207Z,46.56
2018-09-17T12:44:50.226Z,45.46
2018-09-17T12:45:50.196Z,46.31
2018-09-17T12:46:50.155Z,46.30
2018-09-17T12:47:50.130Z,48.02
2018-09-17T12:48:50.100Z,48.00
2018-09-17T12:49:50.139Z,49.66
2018-09-17T12:50:50.087Z,50.12
2018-09-17T12:51:50.071Z,49.66